Time;durP1;ratioP1;P1;durP2;ratioP2;P2;SDS_P1;SDS_P2;PMS_P1;PMS_P2;Temp;Humidity;BMP_temperature;BMP_pressure;BME280_temperature;BME280_humidity;BME280_pressure;Samples;Min_cycle;Max_cycle;Signal;HPM_P1;HPM_P2
2023/12/21 00:01:40;;;;;;;0.82;0.47;;;21.60;42.60;;;;;;5052652;28;20032;-51
2023/12/21 00:04:06;;;;;;;0.70;0.30;;;21.50;42.50;;;;;;5040070;28;20029;-51
2023/12/21 00:06:33;;;;;;;0.80;0.40;;;21.50;42.60;;;;;;5055931;28;20620;-53
2023/12/21 00:08:59;;;;;;;1.98;0.70;;;21.50;42.60;;;;;;5052134;28;20029;-52
2023/12/21 00:11:25;;;;;;;2.72;0.77;;;21.50;42.60;;;;;;5059424;28;20113;-51
2023/12/21 00:13:50;;;;;;;2.33;0.60;;;21.50;42.70;;;;;;5035934;28;20025;-52
2023/12/21 00:16:16;;;;;;;1.90;0.70;;;21.50;42.70;;;;;;5052369;28;20178;-54
2023/12/21 00:18:43;;;;;;;2.22;0.95;;;21.50;42.70;;;;;;5056403;28;20464;-53
2023/12/21 00:21:08;;;;;;;1.50;0.50;;;21.50;42.70;;;;;;5060143;28;20094;-50
2023/12/21 00:23:34;;;;;;;1.30;0.40;;;21.50;42.80;;;;;;5054913;28;20025;-52
2023/12/21 00:26:01;;;;;;;0.43;0.38;;;21.50;42.80;;;;;;5060767;28;20044;-55
2023/12/21 00:28:27;;;;;;;2.75;0.70;;;21.50;42.80;;;;;;5057635;28;20207;-54
2023/12/21 00:30:52;;;;;;;1.00;0.57;;;21.50;42.80;;;;;;5066816;28;20343;-53
2023/12/21 00:33:18;;;;;;;1.60;0.50;;;21.40;42.80;;;;;;5059123;28;20104;-52
2023/12/21 00:35:44;;;;;;;1.10;0.35;;;21.50;42.90;;;;;;5063128;28;20021;-54
2023/12/21 00:38:10;;;;;;;2.65;0.65;;;21.50;42.90;;;;;;5061379;28;20052;-50
2023/12/21 00:40:36;;;;;;;1.83;0.60;;;21.40;42.80;;;;;;5064528;28;20095;-50
2023/12/21 00:43:01;;;;;;;2.05;0.50;;;21.40;42.90;;;;;;5059463;28;20025;-58
2023/12/21 00:45:27;;;;;;;1.67;0.60;;;21.40;42.90;;;;;;5057878;28;20416;-48
2023/12/21 00:47:54;;;;;;;1.73;0.65;;;21.40;42.90;;;;;;5056449;28;20021;-51
2023/12/21 00:50:19;;;;;;;2.03;0.50;;;21.40;42.90;;;;;;5040991;28;20044;-49
2023/12/21 00:52:45;;;;;;;0.93;0.50;;;21.40;43.00;;;;;;5059642;28;20344;-54
2023/12/21 00:55:11;;;;;;;1.85;0.60;;;21.40;43.00;;;;;;5058759;28;20031;-53
2023/12/21 00:57:37;;;;;;;1.75;0.57;;;21.40;43.00;;;;;;5057466;28;20343;-53
2023/12/21 01:00:03;;;;;;;0.70;0.30;;;21.40;43.00;;;;;;5058501;28;21681;-49
2023/12/21 01:02:29;;;;;;;1.73;0.60;;;21.40;43.10;;;;;;5056873;28;20082;-48
2023/12/21 01:04:54;;;;;;;1.58;0.65;;;21.40;43.10;;;;;;5062054;28;20036;-53
2023/12/21 01:07:20;;;;;;;1.88;0.90;;;21.40;43.10;;;;;;5059093;28;20067;-53
2023/12/21 01:09:46;;;;;;;1.13;0.50;;;21.30;43.10;;;;;;5057079;28;20036;-53
2023/12/21 01:12:12;;;;;;;1.65;0.70;;;21.30;43.10;;;;;;5064665;28;20089;-51
2023/12/21 01:14:38;;;;;;;2.47;0.60;;;21.30;43.20;;;;;;5062411;28;20074;-54
2023/12/21 01:17:03;;;;;;;1.27;0.40;;;21.30;43.10;;;;;;5061546;28;20028;-52
2023/12/21 01:19:29;;;;;;;1.80;0.60;;;21.30;43.10;;;;;;5056041;28;20517;-54
2023/12/21 01:21:55;;;;;;;1.83;0.50;;;21.30;43.20;;;;;;5060503;28;20166;-52
2023/12/21 01:24:21;;;;;;;1.95;0.50;;;21.30;43.20;;;;;;5059658;28;20036;-51
2023/12/21 01:26:47;;;;;;;2.10;0.70;;;21.30;43.20;;;;;;5061927;28;20025;-54
2023/12/21 01:29:12;;;;;;;1.52;0.60;;;21.30;43.20;;;;;;5055734;28;20029;-52
2023/12/21 01:31:38;;;;;;;2.00;0.70;;;21.30;43.20;;;;;;5056395;28;20025;-54
2023/12/21 01:34:07;;;;;;;1.80;0.80;;;21.30;43.20;;;;;;5059215;28;20032;-53
2023/12/21 01:36:33;;;;;;;1.15;0.57;;;21.30;43.20;;;;;;5039738;28;20124;-56
2023/12/21 01:38:58;;;;;;;2.15;0.65;;;21.30;43.30;;;;;;5038393;28;20112;-58
2023/12/21 01:41:24;;;;;;;1.50;0.63;;;21.30;43.30;;;;;;5035597;28;20429;-53
2023/12/21 01:43:50;;;;;;;1.48;0.55;;;21.20;43.20;;;;;;5035712;28;20495;-54
2023/12/21 01:46:16;;;;;;;1.30;0.47;;;21.30;43.30;;;;;;5037834;28;20100;-53
2023/12/21 01:48:43;;;;;;;1.13;0.40;;;21.30;43.40;;;;;;5038140;28;20057;-51
2023/12/21 01:51:11;;;;;;;2.92;1.00;;;21.20;43.30;;;;;;5037545;28;20025;-53
2023/12/21 01:53:39;;;;;;;3.33;0.70;;;21.20;43.30;;;;;;5038701;28;20033;-49
2023/12/21 01:56:06;;;;;;;2.83;0.70;;;21.20;43.40;;;;;;5036711;28;20018;-51
2023/12/21 01:58:32;;;;;;;0.77;0.50;;;21.20;43.40;;;;;;5039395;28;20029;-52
2023/12/21 02:00:58;;;;;;;1.85;0.60;;;21.20;43.40;;;;;;5043485;28;20033;-55
2023/12/21 02:03:28;;;;;;;1.27;0.55;;;21.20;43.50;;;;;;5034109;28;20030;-52
2023/12/21 02:05:53;;;;;;;2.47;0.68;;;21.20;43.40;;;;;;5037667;28;20108;-56
2023/12/21 02:08:19;;;;;;;1.13;0.60;;;21.20;43.40;;;;;;5038951;28;20381;-51
2023/12/21 02:10:46;;;;;;;2.30;0.70;;;21.20;43.50;;;;;;5041107;28;21484;-53
2023/12/21 02:13:12;;;;;;;1.33;0.50;;;21.20;43.50;;;;;;5036001;28;20353;-50
2023/12/21 02:15:38;;;;;;;1.35;0.50;;;21.20;43.50;;;;;;5039721;28;20025;-50
2023/12/21 02:18:07;;;;;;;2.63;0.68;;;21.20;43.50;;;;;;5039618;28;20029;-57
2023/12/21 02:20:34;;;;;;;2.20;0.90;;;21.20;43.50;;;;;;5037955;28;20033;-54
2023/12/21 02:23:03;;;;;;;1.50;0.60;;;21.20;43.60;;;;;;5037396;28;20113;-52
2023/12/21 02:25:30;;;;;;;2.08;0.70;;;21.10;43.50;;;;;;5038077;28;20029;-51
2023/12/21 02:27:56;;;;;;;1.95;0.63;;;21.10;43.60;;;;;;5036462;28;20037;-52
2023/12/21 02:30:22;;;;;;;1.10;0.57;;;21.10;43.60;;;;;;5041865;28;20063;-52
2023/12/21 02:32:48;;;;;;;1.35;0.60;;;21.10;43.60;;;;;;5035110;28;20029;-51
2023/12/21 02:35:15;;;;;;;1.48;0.70;;;21.10;43.60;;;;;;5038477;28;20021;-53
2023/12/21 02:37:41;;;;;;;2.20;0.82;;;21.10;43.60;;;;;;5057458;28;20052;-55
2023/12/21 02:40:07;;;;;;;1.63;0.60;;;21.10;43.60;;;;;;5056971;28;20033;-51
2023/12/21 02:42:33;;;;;;;3.47;0.70;;;21.10;43.60;;;;;;5064086;28;20033;-53
2023/12/21 02:44:58;;;;;;;2.00;0.60;;;21.10;44.30;;;;;;5058882;28;20039;-50
2023/12/21 02:47:24;;;;;;;2.30;0.60;;;21.10;43.70;;;;;;5057388;28;20057;-53
2023/12/21 02:49:50;;;;;;;1.08;0.43;;;21.10;43.70;;;;;;5057097;28;20031;-54
2023/12/21 02:52:16;;;;;;;1.27;0.75;;;21.00;43.70;;;;;;5056734;28;20025;-52
2023/12/21 02:54:41;;;;;;;0.85;0.40;;;21.00;43.80;;;;;;5040341;28;20056;-49
2023/12/21 02:57:07;;;;;;;2.33;0.70;;;21.00;43.80;;;;;;5059102;28;20391;-53
2023/12/21 02:59:33;;;;;;;1.20;0.50;;;21.00;43.80;;;;;;5057406;28;20083;-55
2023/12/21 03:01:59;;;;;;;1.17;0.45;;;21.00;43.90;;;;;;5057142;28;20035;-55
2023/12/21 03:04:25;;;;;;;1.90;0.68;;;21.00;43.90;;;;;;5054651;28;20031;-51
2023/12/21 03:06:50;;;;;;;1.20;0.45;;;21.00;43.90;;;;;;5057613;28;20410;-54
2023/12/21 03:09:18;;;;;;;1.85;0.55;;;20.90;43.90;;;;;;5055377;28;20481;-56
2023/12/21 03:11:43;;;;;;;1.58;0.65;;;20.90;43.90;;;;;;5061182;28;20116;-52
2023/12/21 03:14:09;;;;;;;1.52;0.50;;;20.90;43.90;;;;;;5059006;28;20112;-55
2023/12/21 03:16:35;;;;;;;1.55;0.68;;;20.90;44.00;;;;;;5035792;28;20513;-54
2023/12/21 03:19:01;;;;;;;1.35;0.50;;;20.90;44.00;;;;;;5054721;28;20078;-54
2023/12/21 03:21:26;;;;;;;1.88;0.57;;;20.90;44.00;;;;;;5058385;28;20036;-50
2023/12/21 03:23:52;;;;;;;1.13;0.50;;;20.90;44.10;;;;;;5056446;28;20351;-56
2023/12/21 03:26:18;;;;;;;1.45;0.45;;;20.90;44.10;;;;;;5054369;28;20043;-55
2023/12/21 03:28:45;;;;;;;2.33;0.63;;;20.90;44.10;;;;;;5057809;28;20029;-54
2023/12/21 03:31:11;;;;;;;1.58;0.50;;;20.90;44.20;;;;;;5054202;28;20035;-58
2023/12/21 03:33:37;;;;;;;3.30;0.70;;;20.80;44.10;;;;;;5038366;28;20344;-50
2023/12/21 03:36:03;;;;;;;2.40;0.68;;;20.80;44.20;;;;;;5054691;28;20070;-54
2023/12/21 03:38:29;;;;;;;1.02;0.55;;;20.80;44.20;;;;;;5055867;28;20076;-52
2023/12/21 03:40:55;;;;;;;1.02;0.55;;;20.80;44.20;;;;;;5053386;28;20645;-55
2023/12/21 03:43:21;;;;;;;1.75;0.60;;;20.80;44.20;;;;;;5054408;28;20367;-52
2023/12/21 03:45:47;;;;;;;2.95;0.80;;;20.80;44.30;;;;;;5053429;28;20027;-54
2023/12/21 03:48:13;;;;;;;1.95;0.70;;;20.80;44.30;;;;;;5052857;28;20029;-52
2023/12/21 03:50:39;;;;;;;2.22;0.70;;;20.70;44.30;;;;;;5059433;28;20109;-51
2023/12/21 03:53:07;;;;;;;1.90;0.70;;;20.70;44.30;;;;;;5057684;28;20104;-53
2023/12/21 03:55:33;;;;;;;3.30;1.02;;;20.70;44.40;;;;;;5055668;28;20343;-52
2023/12/21 03:57:59;;;;;;;2.17;0.70;;;20.70;44.40;;;;;;5057136;28;20028;-50
2023/12/21 04:00:25;;;;;;;1.60;0.70;;;20.70;44.40;;;;;;5054994;28;21226;-53
2023/12/21 04:02:51;;;;;;;0.77;0.45;;;20.70;44.50;;;;;;5057639;28;20154;-50
2023/12/21 04:05:17;;;;;;;1.63;0.70;;;20.70;44.50;;;;;;5051637;28;20111;-52
2023/12/21 04:07:42;;;;;;;1.77;0.60;;;20.70;44.50;;;;;;5055803;28;20028;-55
2023/12/21 04:10:08;;;;;;;2.85;0.65;;;20.60;44.50;;;;;;5041913;28;20030;-53
2023/12/21 04:12:34;;;;;;;1.20;0.60;;;20.70;44.60;;;;;;5055809;28;20028;-54
2023/12/21 04:15:00;;;;;;;1.95;0.70;;;20.60;44.50;;;;;;5057193;28;20091;-52
2023/12/21 04:17:26;;;;;;;2.17;0.70;;;20.70;44.60;;;;;;5057406;28;20033;-51
2023/12/21 04:19:52;;;;;;;2.22;0.65;;;20.60;44.60;;;;;;5022289;28;20468;-55
2023/12/21 04:22:18;;;;;;;2.58;0.73;;;20.60;44.60;;;;;;5057583;28;20041;-56
2023/12/21 04:24:44;;;;;;;2.45;0.70;;;20.60;44.70;;;;;;5041291;28;20451;-54
2023/12/21 04:27:10;;;;;;;2.25;0.88;;;20.60;44.70;;;;;;5053617;28;20064;-53
2023/12/21 04:29:39;;;;;;;1.48;0.77;;;20.60;44.70;;;;;;5055337;28;20523;-53
2023/12/21 04:32:08;;;;;;;1.48;0.73;;;20.60;44.70;;;;;;5054510;28;20025;-52
2023/12/21 04:34:34;;;;;;;2.10;0.80;;;20.60;44.70;;;;;;5058194;28;20079;-54
2023/12/21 04:37:00;;;;;;;2.28;0.77;;;20.60;44.80;;;;;;5052203;28;20511;-49
2023/12/21 04:39:26;;;;;;;2.28;0.50;;;20.60;44.80;;;;;;5059021;28;20048;-53
2023/12/21 04:41:51;;;;;;;1.55;0.52;;;20.60;44.80;;;;;;5057848;28;20364;-51
2023/12/21 04:44:17;;;;;;;1.40;0.65;;;20.60;44.90;;;;;;5052467;28;20025;-49
2023/12/21 04:46:47;;;;;;;2.88;1.13;;;20.60;44.90;;;;;;5053400;28;20021;-51
2023/12/21 04:49:14;;;;;;;2.25;0.63;;;20.50;44.80;;;;;;5060424;28;20037;-52
2023/12/21 04:51:40;;;;;;;2.45;0.70;;;20.50;44.90;;;;;;5053304;28;20079;-54
2023/12/21 04:54:06;;;;;;;2.38;0.70;;;20.50;44.90;;;;;;5054987;28;20033;-53
2023/12/21 04:56:32;;;;;;;1.45;0.60;;;20.50;45.00;;;;;;5054465;28;20032;-52
2023/12/21 04:58:57;;;;;;;2.47;0.85;;;20.50;45.00;;;;;;5055994;28;20128;-57
2023/12/21 05:01:23;;;;;;;1.95;0.93;;;20.50;45.00;;;;;;5055243;28;20051;-53
2023/12/21 05:03:50;;;;;;;1.77;0.60;;;20.50;45.00;;;;;;5036830;28;20037;-51
2023/12/21 05:06:16;;;;;;;1.80;0.60;;;20.50;45.00;;;;;;5056193;28;20029;-50
2023/12/21 05:08:42;;;;;;;2.53;0.50;;;20.50;45.10;;;;;;5062330;28;20167;-51
2023/12/21 05:11:07;;;;;;;1.98;0.70;;;20.50;45.10;;;;;;5060866;28;20029;-53
2023/12/21 05:13:33;;;;;;;3.83;0.70;;;20.50;45.10;;;;;;5060833;28;20108;-53
2023/12/21 05:15:59;;;;;;;3.83;0.90;;;20.40;45.10;;;;;;5057302;28;20025;-51
2023/12/21 05:18:25;;;;;;;3.47;0.90;;;20.50;45.10;;;;;;5040104;28;20111;-54
2023/12/21 05:20:51;;;;;;;1.63;0.63;;;20.40;45.10;;;;;;5056566;28;20461;-49
2023/12/21 05:23:17;;;;;;;1.75;0.63;;;20.40;45.10;;;;;;5058919;28;20055;-52
2023/12/21 05:25:44;;;;;;;1.63;0.77;;;20.40;45.10;;;;;;5057705;28;20039;-55
2023/12/21 05:28:13;;;;;;;2.17;0.75;;;20.40;45.10;;;;;;5058821;28;20036;-50
2023/12/21 05:30:39;;;;;;;1.17;0.60;;;20.40;45.20;;;;;;5061699;28;20032;-55
2023/12/21 05:33:05;;;;;;;2.45;0.90;;;20.40;45.20;;;;;;5058915;28;20020;-50
2023/12/21 05:35:31;;;;;;;1.92;0.70;;;20.40;45.20;;;;;;5061545;28;20027;-56
2023/12/21 05:37:57;;;;;;;1.45;0.60;;;20.40;45.20;;;;;;5057634;28;20045;-53
2023/12/21 05:40:23;;;;;;;2.10;0.60;;;20.40;45.20;;;;;;5062081;28;20416;-53
2023/12/21 05:42:49;;;;;;;2.92;1.00;;;20.40;45.30;;;;;;5055347;28;20086;-52
2023/12/21 05:45:15;;;;;;;2.45;1.08;;;20.40;45.30;;;;;;5055943;28;20029;-54
2023/12/21 05:47:40;;;;;;;2.58;1.00;;;20.40;45.30;;;;;;5058600;28;20021;-54
2023/12/21 05:50:08;;;;;;;1.60;0.63;;;20.40;45.40;;;;;;5059277;28;20025;-54
2023/12/21 05:52:33;;;;;;;3.42;0.50;;;20.30;45.30;;;;;;5058592;28;20090;-51
2023/12/21 05:54:59;;;;;;;2.45;0.85;;;20.40;45.40;;;;;;5058228;28;20024;-52
2023/12/21 05:57:25;;;;;;;2.10;0.90;;;20.30;45.40;;;;;;5062688;28;20040;-52
2023/12/21 05:59:51;;;;;;;1.88;0.70;;;20.30;45.40;;;;;;5054988;28;20052;-53
2023/12/21 06:02:17;;;;;;;2.20;0.77;;;20.30;45.40;;;;;;5055082;28;20347;-54
2023/12/21 06:04:42;;;;;;;2.60;0.80;;;20.30;45.40;;;;;;5059250;28;20033;-50
2023/12/21 06:07:08;;;;;;;2.10;0.70;;;20.30;45.50;;;;;;5056969;28;20455;-53
2023/12/21 06:09:34;;;;;;;2.17;0.73;;;20.30;45.50;;;;;;5058875;28;20044;-51
2023/12/21 06:12:00;;;;;;;2.08;0.70;;;20.30;45.50;;;;;;5060726;28;20397;-54
2023/12/21 06:14:25;;;;;;;1.60;0.47;;;20.30;45.60;;;;;;5054602;28;20494;-49
2023/12/21 06:16:51;;;;;;;2.92;0.82;;;20.30;45.60;;;;;;5060572;28;20032;-51
2023/12/21 06:19:17;;;;;;;1.38;0.60;;;20.30;45.70;;;;;;5057762;28;20356;-53
2023/12/21 06:21:43;;;;;;;2.70;0.70;;;20.30;45.70;;;;;;5045229;28;20032;-53
2023/12/21 06:24:09;;;;;;;1.65;0.85;;;20.30;45.70;;;;;;5058937;28;20036;-48
2023/12/21 06:26:42;;;;;;;2.58;0.65;;;20.30;45.80;;;;;;5058327;28;20032;-52
2023/12/21 06:29:08;;;;;;;1.67;0.75;;;20.30;45.80;;;;;;5053914;28;20111;-51
2023/12/21 06:31:34;;;;;;;2.03;0.75;;;20.30;45.90;;;;;;5057407;28;20021;-51
2023/12/21 06:34:00;;;;;;;2.92;0.85;;;20.20;45.90;;;;;;5056016;28;20451;-48
2023/12/21 06:36:26;;;;;;;2.20;0.90;;;20.30;45.90;;;;;;5055221;28;20044;-48
2023/12/21 06:38:52;;;;;;;3.33;0.85;;;20.20;45.80;;;;;;5056801;28;20039;-50
2023/12/21 06:41:18;;;;;;;1.95;0.90;;;20.30;46.10;;;;;;5057380;28;20021;-57
2023/12/21 06:43:43;;;;;;;1.83;0.70;;;20.30;45.90;;;;;;5055815;28;20440;-48
2023/12/21 06:46:13;;;;;;;2.03;0.90;;;20.20;45.80;;;;;;5056762;28;20029;-52
2023/12/21 06:48:40;;;;;;;2.42;0.65;;;20.20;45.80;;;;;;5061088;28;20029;-51
2023/12/21 06:51:06;;;;;;;1.55;0.70;;;20.20;45.80;;;;;;5054190;28;20021;-49
2023/12/21 06:53:31;;;;;;;1.85;0.70;;;20.20;45.80;;;;;;5063386;28;20495;-53
2023/12/21 06:55:57;;;;;;;2.47;0.75;;;20.20;45.80;;;;;;5054576;28;20021;-53
2023/12/21 06:58:24;;;;;;;3.30;1.02;;;20.20;45.80;;;;;;5056372;28;20116;-55
2023/12/21 07:00:50;;;;;;;2.92;0.77;;;20.20;45.80;;;;;;5054168;28;20033;-57
2023/12/21 07:03:16;;;;;;;2.55;0.93;;;20.20;45.80;;;;;;5054479;28;20075;-56
2023/12/21 07:05:41;;;;;;;1.45;0.40;;;20.20;45.90;;;;;;5059485;28;20033;-56
2023/12/21 07:08:08;;;;;;;2.88;1.00;;;20.20;46.00;;;;;;5054433;28;20044;-53
2023/12/21 07:10:34;;;;;;;3.08;0.90;;;20.20;46.00;;;;;;5053735;28;20098;-54
2023/12/21 07:13:00;;;;;;;2.78;1.02;;;20.20;46.10;;;;;;5058766;28;20033;-55
2023/12/21 07:15:26;;;;;;;1.73;0.60;;;20.20;46.10;;;;;;5056778;28;20115;-55
2023/12/21 07:17:51;;;;;;;3.08;0.70;;;20.20;46.10;;;;;;5058424;28;20111;-53
2023/12/21 07:20:21;;;;;;;2.00;0.82;;;20.20;46.20;;;;;;5057276;28;20420;-53
2023/12/21 07:22:47;;;;;;;1.75;0.50;;;20.10;46.10;;;;;;5056945;28;20394;-52
2023/12/21 07:25:12;;;;;;;2.28;0.68;;;20.10;46.20;;;;;;5039113;28;20116;-50
2023/12/21 07:27:38;;;;;;;3.03;1.13;;;20.20;46.30;;;;;;5056886;28;20039;-55
2023/12/21 07:30:05;;;;;;;3.67;0.90;;;20.20;46.30;;;;;;5060192;28;20033;-49
2023/12/21 07:32:30;;;;;;;3.15;1.10;;;20.10;46.30;;;;;;5047151;28;20392;-56
2023/12/21 07:34:56;;;;;;;3.55;1.08;;;20.10;46.30;;;;;;5061326;28;20067;-53
2023/12/21 07:37:22;;;;;;;2.92;0.90;;;20.20;46.40;;;;;;5061732;28;20099;-53
2023/12/21 07:39:48;;;;;;;3.72;1.30;;;20.10;46.40;;;;;;5057114;28;20060;-54
2023/12/21 07:42:14;;;;;;;3.53;1.13;;;20.10;46.40;;;;;;5070408;28;20036;-52
2023/12/21 07:44:40;;;;;;;3.25;0.80;;;20.10;46.40;;;;;;5064703;28;20103;-54
2023/12/21 07:47:06;;;;;;;2.88;1.02;;;20.10;46.40;;;;;;5058338;28;20450;-50
2023/12/21 07:49:32;;;;;;;2.70;1.20;;;20.10;46.40;;;;;;5061280;28;20028;-50
2023/12/21 07:51:58;;;;;;;3.85;1.30;;;20.10;46.40;;;;;;5057060;28;20104;-50
2023/12/21 07:54:24;;;;;;;3.58;0.90;;;20.10;46.40;;;;;;5063121;28;20108;-54
2023/12/21 07:56:50;;;;;;;2.95;0.95;;;20.10;46.40;;;;;;5068131;28;20128;-51
2023/12/21 07:59:17;;;;;;;2.63;1.10;;;20.10;46.40;;;;;;5066098;28;20033;-56
2023/12/21 08:01:43;;;;;;;1.77;0.70;;;20.10;46.50;;;;;;5066198;28;20368;-54
2023/12/21 08:04:09;;;;;;;3.55;1.00;;;20.10;46.50;;;;;;5054048;28;20025;-54
2023/12/21 08:06:35;;;;;;;2.70;0.95;;;20.10;46.50;;;;;;5053430;28;20036;-51
2023/12/21 08:09:01;;;;;;;3.35;0.95;;;20.10;46.50;;;;;;5053884;28;20037;-53
2023/12/21 08:11:27;;;;;;;2.53;0.80;;;20.10;46.50;;;;;;5060635;28;20451;-53
2023/12/21 08:13:52;;;;;;;2.70;1.00;;;20.10;46.50;;;;;;5072757;28;20025;-53
2023/12/21 08:16:18;;;;;;;2.67;1.23;;;20.20;46.60;;;;;;5061771;28;20029;-49
2023/12/21 08:18:44;;;;;;;2.95;1.00;;;20.20;47.10;;;;;;5058766;28;20037;-54
2023/12/21 08:21:11;;;;;;;3.05;0.98;;;20.30;46.50;;;;;;5068458;28;20034;-50
2023/12/21 08:23:37;;;;;;;2.80;0.88;;;20.30;46.50;;;;;;5060939;28;20024;-49
2023/12/21 08:26:03;;;;;;;2.90;0.73;;;20.40;46.40;;;;;;5069898;28;20512;-55
2023/12/21 08:28:30;;;;;;;2.00;0.68;;;20.40;46.30;;;;;;5056854;28;20027;-53
2023/12/21 08:30:57;;;;;;;1.98;0.70;;;20.50;46.30;;;;;;5060002;28;20021;-49
2023/12/21 08:33:23;;;;;;;1.52;0.50;;;20.60;46.20;;;;;;5055033;28;20440;-56
2023/12/21 08:35:48;;;;;;;2.63;0.90;;;20.60;46.10;;;;;;5054737;28;20036;-52
2023/12/21 08:38:14;;;;;;;2.25;0.70;;;20.70;46.10;;;;;;5057755;28;20028;-53
2023/12/21 08:40:40;;;;;;;1.80;0.68;;;20.80;46.10;;;;;;5074114;28;20036;-53
2023/12/21 08:43:06;;;;;;;2.03;0.70;;;20.90;46.00;;;;;;5070126;28;20321;-50
2023/12/21 08:45:34;;;;;;;1.15;0.60;;;20.90;45.90;;;;;;5070325;28;20115;-52
2023/12/21 08:48:00;;;;;;;1.67;0.52;;;21.00;45.90;;;;;;5067912;28;20108;-52
2023/12/21 08:50:26;;;;;;;2.17;0.65;;;21.10;45.80;;;;;;5063306;28;20112;-52
2023/12/21 08:52:51;;;;;;;1.67;0.65;;;21.10;45.70;;;;;;5058182;28;20051;-55
2023/12/21 08:55:17;;;;;;;1.35;0.60;;;21.20;45.70;;;;;;5033004;28;20029;-56
2023/12/21 08:57:43;;;;;;;1.90;0.73;;;21.30;45.60;;;;;;5047011;28;20029;-54
2023/12/21 09:00:13;;;;;;;1.30;0.47;;;21.40;45.50;;;;;;5044830;28;20132;-55
2023/12/21 09:02:39;;;;;;;1.20;0.52;;;21.40;45.40;;;;;;5049183;28;20029;-56
2023/12/21 09:05:06;;;;;;;1.15;0.40;;;21.50;45.40;;;;;;5046707;28;20049;-50
2023/12/21 09:07:33;;;;;;;2.25;0.70;;;21.50;45.30;;;;;;5045077;28;20037;-56
2023/12/21 09:10:00;;;;;;;1.27;0.68;;;21.60;45.20;;;;;;5053170;28;20025;-55
2023/12/21 09:12:26;;;;;;;0.73;0.35;;;21.70;45.20;;;;;;5052992;28;20363;-56
2023/12/21 09:14:52;;;;;;;0.88;0.43;;;21.70;45.00;;;;;;5057512;28;20029;-54
2023/12/21 09:17:19;;;;;;;0.60;0.30;;;21.80;45.00;;;;;;5062193;28;20025;-55
2023/12/21 09:19:45;;;;;;;1.58;0.47;;;21.80;44.90;;;;;;5065856;28;20032;-49
2023/12/21 09:22:11;;;;;;;0.70;0.40;;;21.90;44.80;;;;;;5040313;28;20056;-55
2023/12/21 09:24:39;;;;;;;1.80;0.60;;;22.00;44.80;;;;;;5057544;28;20457;-51
2023/12/21 09:27:05;;;;;;;1.67;0.40;;;22.00;44.70;;;;;;5058127;28;20115;-52
2023/12/21 09:29:31;;;;;;;1.40;0.60;;;22.00;44.60;;;;;;5057130;28;20037;-55
2023/12/21 09:31:57;;;;;;;1.88;0.52;;;22.10;44.60;;;;;;5055199;28;20031;-54
2023/12/21 09:34:23;;;;;;;1.42;0.50;;;22.20;44.60;;;;;;5057781;28;20071;-56
2023/12/21 09:36:49;;;;;;;1.30;0.52;;;22.20;44.50;;;;;;5044155;28;20110;-52
2023/12/21 09:39:14;;;;;;;1.33;0.50;;;22.20;44.40;;;;;;5065149;28;20036;-56
2023/12/21 09:41:40;;;;;;;1.33;0.40;;;22.30;44.40;;;;;;5062943;28;20032;-56
2023/12/21 09:44:10;;;;;;;1.70;0.68;;;22.30;44.30;;;;;;5065190;28;20428;-55
2023/12/21 09:46:39;;;;;;;1.75;0.45;;;22.30;44.30;;;;;;5066805;28;20048;-53
2023/12/21 09:49:09;;;;;;;0.88;0.30;;;22.30;44.30;;;;;;5060599;28;20335;-53
2023/12/21 09:51:36;;;;;;;1.42;0.55;;;22.30;44.30;;;;;;5057558;28;20504;-54
2023/12/21 09:54:04;;;;;;;1.30;0.40;;;22.40;44.30;;;;;;5059570;28;20071;-53
2023/12/21 09:56:31;;;;;;;1.60;0.65;;;22.40;44.30;;;;;;5063892;28;20095;-53
2023/12/21 09:58:58;;;;;;;0.88;0.40;;;22.40;44.30;;;;;;5058052;28;20036;-53
2023/12/21 10:01:24;;;;;;;1.67;0.50;;;22.40;44.30;;;;;;5072214;28;20025;-53
2023/12/21 10:03:50;;;;;;;1.60;0.50;;;22.40;44.30;;;;;;5040430;28;20104;-54
2023/12/21 10:06:16;;;;;;;1.55;0.60;;;22.40;44.30;;;;;;5059917;28;20431;-52
2023/12/21 10:08:42;;;;;;;0.63;0.45;;;22.40;44.30;;;;;;5058229;28;20218;-54
2023/12/21 10:11:09;;;;;;;1.40;0.50;;;22.40;44.40;;;;;;5056144;28;20108;-55
2023/12/21 10:13:35;;;;;;;1.88;0.60;;;22.40;44.40;;;;;;5055805;28;20465;-55
2023/12/21 10:16:03;;;;;;;1.70;0.60;;;22.40;44.50;;;;;;5056792;28;20029;-53
2023/12/21 10:18:31;;;;;;;1.38;0.50;;;22.40;44.50;;;;;;5056607;28;20028;-52
2023/12/21 10:20:58;;;;;;;2.65;0.63;;;22.40;44.50;;;;;;5056416;28;20051;-54
2023/12/21 10:23:25;;;;;;;1.02;0.47;;;22.40;44.50;;;;;;5056636;28;20345;-54
2023/12/21 10:25:52;;;;;;;1.15;0.47;;;22.30;44.60;;;;;;5056297;28;20017;-52
2023/12/21 10:28:22;;;;;;;1.83;0.50;;;22.30;44.60;;;;;;5045463;28;20039;-56
2023/12/21 10:30:59;;;;;;;1.40;0.65;;;22.30;44.70;;;;;;5056101;28;20033;-51
2023/12/21 10:33:28;;;;;;;0.95;0.40;;;22.30;44.70;;;;;;5055662;28;20029;-54
2023/12/21 10:35:54;;;;;;;0.77;0.40;;;22.30;44.80;;;;;;5056696;28;20068;-51
2023/12/21 10:38:22;;;;;;;3.08;0.70;;;22.30;44.80;;;;;;5056585;28;20025;-49
2023/12/21 10:40:49;;;;;;;1.55;0.47;;;22.20;44.80;;;;;;5057485;28;20068;-51
2023/12/21 10:43:16;;;;;;;1.27;0.60;;;22.20;45.00;;;;;;5068237;28;20044;-49
2023/12/21 10:45:48;;;;;;;1.63;0.60;;;22.20;45.00;;;;;;5048940;28;20029;-54
2023/12/21 10:48:16;;;;;;;1.15;0.50;;;22.20;45.10;;;;;;5060495;28;20111;-53
2023/12/21 10:50:51;;;;;;;1.63;0.40;;;22.20;45.10;;;;;;5055418;28;20032;-50
2023/12/21 10:53:22;;;;;;;1.20;0.50;;;22.20;45.20;;;;;;5057282;28;20107;-52
2023/12/21 10:55:51;;;;;;;1.27;0.50;;;22.20;45.20;;;;;;5073186;28;20427;-54
2023/12/21 10:58:17;;;;;;;0.95;0.38;;;22.10;45.20;;;;;;5068906;28;20051;-53
2023/12/21 11:00:44;;;;;;;1.40;0.50;;;22.10;45.20;;;;;;5041221;28;20041;-53
2023/12/21 11:03:16;;;;;;;0.52;0.40;;;22.10;45.30;;;;;;5039321;28;20029;-51
2023/12/21 11:05:44;;;;;;;1.92;0.60;;;22.10;45.30;;;;;;5072330;28;20123;-52
2023/12/21 11:08:10;;;;;;;1.10;0.32;;;22.00;45.20;;;;;;5063311;28;20025;-50
2023/12/21 11:10:37;;;;;;;1.42;0.50;;;22.00;45.20;;;;;;5060566;28;20025;-50
2023/12/21 11:13:03;;;;;;;2.05;0.70;;;22.00;45.30;;;;;;5069952;28;20103;-52
2023/12/21 11:15:30;;;;;;;1.50;0.70;;;22.00;45.20;;;;;;5068701;28;20446;-53
2023/12/21 11:18:01;;;;;;;2.60;0.68;;;22.00;45.30;;;;;;5055772;28;20094;-52
2023/12/21 11:20:37;;;;;;;1.35;0.45;;;22.00;45.30;;;;;;5061313;28;20098;-52
2023/12/21 11:23:06;;;;;;;1.10;0.52;;;22.00;45.30;;;;;;5054646;28;20044;-54
2023/12/21 11:25:33;;;;;;;0.75;0.32;;;22.00;45.30;;;;;;5059749;28;20034;-54
2023/12/21 11:28:02;;;;;;;1.23;0.50;;;22.00;45.30;;;;;;5042968;28;20458;-56
2023/12/21 11:30:29;;;;;;;1.30;0.45;;;22.10;45.30;;;;;;5051424;28;20021;-54
2023/12/21 11:33:06;;;;;;;1.23;0.50;;;22.20;45.30;;;;;;5044297;28;20140;-57
2023/12/21 11:35:33;;;;;;;2.05;0.70;;;22.30;45.20;;;;;;5045126;28;20102;-54
2023/12/21 11:38:07;;;;;;;1.63;0.50;;;22.40;45.10;;;;;;5054420;28;20084;-53
2023/12/21 11:40:37;;;;;;;1.48;0.50;;;22.50;45.00;;;;;;5036934;28;20486;-51
2023/12/21 11:43:06;;;;;;;1.10;0.70;;;22.70;44.90;;;;;;5033871;28;20060;-55
2023/12/21 11:45:32;;;;;;;1.02;0.55;;;22.80;44.80;;;;;;5034390;28;20046;-53
2023/12/21 11:48:00;;;;;;;1.05;0.32;;;22.90;44.70;;;;;;5046401;28;20094;-55
2023/12/21 11:50:30;;;;;;;1.58;0.45;;;23.00;44.60;;;;;;5054283;28;20037;-52
2023/12/21 11:53:11;;;;;;;1.30;0.40;;;23.10;44.40;;;;;;5053925;28;20032;-52
2023/12/21 11:55:42;;;;;;;0.82;0.43;;;23.10;44.20;;;;;;5046684;28;20456;-52
2023/12/21 11:58:24;;;;;;;0.93;0.40;;;23.20;44.10;;;;;;5038286;28;20415;-56
2023/12/21 12:00:54;;;;;;;0.90;0.40;;;23.30;44.00;;;;;;5046438;28;20037;-53
2023/12/21 12:03:25;;;;;;;1.25;0.50;;;23.40;43.90;;;;;;5045167;28;20033;-50
2023/12/21 12:05:53;;;;;;;0.90;0.40;;;23.40;43.80;;;;;;5044071;28;20025;-55
2023/12/21 12:08:24;;;;;;;1.42;0.60;;;23.50;43.70;;;;;;5042942;28;20059;-54
2023/12/21 12:10:51;;;;;;;1.63;0.50;;;23.60;43.60;;;;;;5053656;28;20116;-56
2023/12/21 12:13:18;;;;;;;1.17;0.52;;;23.60;43.50;;;;;;5053653;28;20029;-52
2023/12/21 12:15:47;;;;;;;1.00;0.45;;;23.60;43.30;;;;;;5034345;28;20451;-52
2023/12/21 12:18:13;;;;;;;1.58;0.60;;;23.70;43.30;;;;;;5043101;28;20416;-52
2023/12/21 12:20:44;;;;;;;1.45;0.60;;;23.70;43.20;;;;;;5049289;28;20083;-55
2023/12/21 12:23:10;;;;;;;1.63;0.65;;;23.80;43.10;;;;;;5040948;28;20087;-51
2023/12/21 12:25:37;;;;;;;0.55;0.32;;;23.80;43.00;;;;;;5048691;28;20348;-53
2023/12/21 12:28:04;;;;;;;1.20;0.50;;;23.80;42.90;;;;;;5045026;28;20029;-51
2023/12/21 12:30:31;;;;;;;1.45;0.60;;;23.80;42.80;;;;;;5035443;28;20100;-48
2023/12/21 12:33:03;;;;;;;1.60;0.77;;;23.90;42.80;;;;;;5045659;28;20513;-51
2023/12/21 12:35:32;;;;;;;1.50;0.40;;;23.90;42.70;;;;;;5039668;28;20068;-54
2023/12/21 12:38:01;;;;;;;2.33;0.60;;;23.90;42.60;;;;;;5041646;28;20083;-52
2023/12/21 12:40:28;;;;;;;0.70;0.40;;;23.90;42.50;;;;;;5053673;28;20037;-50
2023/12/21 12:42:55;;;;;;;1.08;0.40;;;24.00;42.40;;;;;;5053141;28;20036;-48
2023/12/21 12:45:22;;;;;;;1.67;0.50;;;24.00;42.40;;;;;;5043553;28;20029;-47